メインページ
METAR-TAF:

METAR-TAF

空港 :

インディラ・ガンディー国際空港

ニューデリー, インド

緯度: 28-34N, 経度: 077-07E, 海抜: 220m

現時点の気象観測

当レポートは25分前の14:00(UTC)に作成
北/北東の風 6kt
気温 32°C
湿度 71%
気圧 998 hPa
視程: 2500m
高度3500ftの雲は散在している
高度8000ftの曇り
煙霧

METAR: VIDP 201400Z 03006KT 2500 HZ SCT035 OVC080 32/26 Q0998 NOSIG

時間: 19:55 (14:25 UTC)

予報

当レポートは3時間25分前の11:00(UTC)に作成
予報は20日の 12時(UTC)から 21日の 18時(UTC)まで有効
の風 5kt
視程: 3500m
高度3500ftの雲は散在している
高度10000ftの千切れ雲あり
靄, 煙霧
20日の 18時(UTC)から 20日の 20時(UTC)まで徐々に
変向風 2kt
視程: 2500m
間 20から18 UTC一時的に
西/南西の風 8kt
視程: 1200m
高度4000ftの雲はほとんどない, 積乱雲.
高度8000ftの曇り
激しい雷雨, 雨
21日の 05時(UTC)から 21日の 07時(UTC)まで徐々に
南/南東の風 8kt
視程: 3500m
靄, 煙霧
21日の 09時(UTC)から 21日の 15時(UTC)まで一時的に
西/南西の風 8kt
視程: 1500m
高度4000ftの雲はほとんどない, 積乱雲.
高度8000ftの曇り
激しい雷雨, 雨

TAF: VIDP 201100Z 2012/2118 09005KT 3500 BR HZ SCT035 BKN100 BECMG 2018/2020 VRB02KT 2500 BR TEMPO 2018 /2024 24008KT 1200 TSRA FEW040CB OVC080 BECMG 2105/2107 15008KT 3500 BR HZ TEMPO 2109/2115 24008KT 1500 TSRA FEW040CB OVC080

4,000以上の空港の気象観測と天気予報(METAR報とTAF報)

利用可能な観測所は地図上に黄色い丸と赤い丸で示す。

丸の上にカーソルを重ねると観測所名を参照できる。

次にクリックすると気象観測と天気予報を参照できる。

マップの切り替え:黒色「×」印の緑ボタンをクリックして拡大、「-」印の緑ボタンをクリックして縮小、緑色の三角印をクリックして隣りの地図に切り替え


METAR-TAF: